createdAt,value
2019-04-29T00:00:49.812Z,102119.73
2019-04-29T00:03:18.233Z,102117.45
2019-04-29T00:05:46.680Z,102120.67
2019-04-29T00:08:15.104Z,102123.72
2019-04-29T00:10:44.217Z,102121.44
2019-04-29T00:13:13.547Z,102125.42
2019-04-29T00:15:55.639Z,102126.95
2019-04-29T00:18:28.533Z,102129.89
2019-04-29T00:20:57.188Z,102133.31
2019-04-29T00:23:25.799Z,102130.36
2019-04-29T00:25:54.228Z,102130.20
2019-04-29T00:28:22.652Z,102128.48
2019-04-29T00:30:51.189Z,102132.09
2019-04-29T00:33:19.689Z,102130.56
2019-04-29T00:35:48.129Z,102128.53
2019-04-29T00:38:34.464Z,102128.25
2019-04-29T00:41:20.787Z,102127.13
2019-04-29T00:43:59.927Z,102129.59
2019-04-29T00:46:28.540Z,102123.41
2019-04-29T00:48:56.960Z,102115.98
2019-04-29T00:51:25.383Z,102110.67
2019-04-29T00:53:55.464Z,102112.98
2019-04-29T00:56:23.164Z,102104.15
2019-04-29T00:58:51.582Z,102102.55
2019-04-29T01:01:21.657Z,102096.44
2019-04-29T01:03:50.079Z,102099.78
2019-04-29T01:06:18.527Z,102107.38
2019-04-29T01:08:46.969Z,102110.41
2019-04-29T01:11:15.721Z,102114.87
2019-04-29T01:13:44.273Z,102121.05
2019-04-29T01:16:12.771Z,102117.83
2019-04-29T01:18:41.995Z,102117.61
2019-04-29T01:21:10.421Z,102116.66
2019-04-29T01:23:38.846Z,102125.41
2019-04-29T01:26:27.023Z,102122.18
2019-04-29T01:28:57.345Z,102121.14
2019-04-29T01:31:27.583Z,102118.39
2019-04-29T01:33:57.645Z,102111.91
2019-04-29T01:36:27.004Z,102117.80
2019-04-29T01:38:57.022Z,102111.15
2019-04-29T01:41:36.199Z,102118.61
2019-04-29T01:44:09.120Z,102113.16
2019-04-29T01:46:37.533Z,102110.79
2019-04-29T01:49:05.973Z,102105.66
2019-04-29T01:51:34.411Z,102108.90
2019-04-29T01:54:02.841Z,102100.13
2019-04-29T01:56:31.270Z,102101.17
2019-04-29T01:58:59.766Z,102103.45
2019-04-29T02:01:28.247Z,102096.86
2019-04-29T02:03:56.760Z,102095.61
2019-04-29T02:06:25.387Z,102099.89
2019-04-29T02:08:55.185Z,102087.59
2019-04-29T02:11:23.628Z,102094.81
2019-04-29T02:13:52.215Z,102089.19
2019-04-29T02:16:20.646Z,102089.95
2019-04-29T02:18:49.166Z,102090.70
2019-04-29T02:21:17.733Z,102084.77
2019-04-29T02:23:50.715Z,102088.57
2019-04-29T02:26:19.139Z,102091.14
2019-04-29T02:28:47.569Z,102093.33
2019-04-29T02:31:33.725Z,102088.95
2019-04-29T02:34:02.169Z,102085.72
2019-04-29T02:36:30.600Z,102088.00
2019-04-29T02:39:00.933Z,102085.34
2019-04-29T02:41:30.252Z,102080.48
2019-04-29T02:44:00.286Z,102077.48
2019-04-29T02:46:28.954Z,102076.95
2019-04-29T02:48:57.390Z,102073.53
2019-04-29T02:51:43.514Z,102073.26
2019-04-29T02:54:12.755Z,102082.00
2019-04-29T02:56:42.785Z,102076.02
2019-04-29T02:59:12.854Z,102078.10
2019-04-29T03:01:43.299Z,102070.02
2019-04-29T03:04:21.523Z,102072.00
2019-04-29T03:06:50.436Z,102062.05
2019-04-29T03:09:19.504Z,102071.67
2019-04-29T03:11:47.974Z,102072.16
2019-04-29T03:14:16.501Z,102068.63
2019-04-29T03:16:45.306Z,101941.64
2019-04-29T03:19:21.562Z,102069.56
2019-04-29T03:21:57.829Z,102062.91
2019-04-29T03:24:26.250Z,102073.36
2019-04-29T03:26:54.888Z,102071.36
2019-04-29T03:29:23.384Z,102078.53
2019-04-29T03:31:52.652Z,102078.33
2019-04-29T03:34:21.135Z,102075.19
2019-04-29T03:36:49.557Z,102068.33
2019-04-29T03:39:17.986Z,102071.64
2019-04-29T03:41:46.450Z,101986.50
2019-04-29T03:44:14.947Z,102068.55
2019-04-29T03:46:43.381Z,102073.67
2019-04-29T03:49:11.808Z,102075.17
2019-04-29T03:51:40.483Z,102075.21
2019-04-29T03:54:10.683Z,102071.77
2019-04-29T03:56:39.183Z,102079.55
2019-04-29T03:59:07.684Z,102070.25
2019-04-29T04:01:37.778Z,102073.67
2019-04-29T04:04:07.838Z,102076.03
2019-04-29T04:06:43.597Z,102075.92
2019-04-29T04:09:22.432Z,101993.46
2019-04-29T04:11:51.019Z,102080.81
2019-04-29T04:14:19.447Z,102077.45
2019-04-29T04:16:58.321Z,102069.35
2019-04-29T04:19:28.394Z,102076.66
2019-04-29T04:21:56.812Z,102074.75
2019-04-29T04:24:25.242Z,102083.39
2019-04-29T04:26:53.682Z,102085.23
2019-04-29T04:29:22.162Z,102083.31
2019-04-29T04:31:50.593Z,102083.69
2019-04-29T04:34:19.041Z,102085.39
2019-04-29T04:36:47.463Z,102089.29
2019-04-29T04:39:16.216Z,102096.16
2019-04-29T04:41:44.671Z,102087.19
2019-04-29T04:44:13.083Z,102095.53
2019-04-29T04:46:41.584Z,102096.45
2019-04-29T04:49:10.772Z,102093.19
2019-04-29T04:51:39.222Z,102097.78
2019-04-29T04:54:07.638Z,102093.19
2019-04-29T04:56:36.230Z,102089.83
2019-04-29T04:59:04.657Z,102082.58
2019-04-29T05:01:33.129Z,102083.77
2019-04-29T05:04:01.556Z,102094.02
2019-04-29T05:06:29.991Z,102092.09
2019-04-29T05:08:58.420Z,102091.88
2019-04-29T05:11:26.929Z,102092.52
2019-04-29T05:13:55.362Z,102092.16
2019-04-29T05:16:23.998Z,102097.28
2019-04-29T05:18:52.438Z,102094.87
2019-04-29T05:21:21.374Z,102103.63
2019-04-29T05:23:49.904Z,102098.08
2019-04-29T05:26:18.428Z,102077.53
2019-04-29T05:28:46.854Z,102100.87
2019-04-29T05:31:15.300Z,102095.20
2019-04-29T05:33:43.859Z,102096.43
2019-04-29T05:36:19.895Z,102101.50
2019-04-29T05:38:49.977Z,102095.47
2019-04-29T05:41:19.183Z,102085.91
2019-04-29T05:43:58.671Z,102085.28
2019-04-29T05:46:31.723Z,102084.69
2019-04-29T05:49:02.474Z,102076.34
2019-04-29T05:51:39.999Z,102087.14
2019-04-29T05:54:18.803Z,102087.89
2019-04-29T05:56:47.216Z,102095.09
2019-04-29T05:59:15.654Z,102082.47
2019-04-29T06:01:47.186Z,102093.86
2019-04-29T06:04:16.377Z,102090.12
2019-04-29T06:06:44.591Z,102078.98
2019-04-29T06:09:16.632Z,102078.98
2019-04-29T06:11:43.198Z,102078.98
2019-04-29T06:14:11.908Z,102084.48
2019-04-29T06:16:40.613Z,102080.81
2019-04-29T06:19:09.039Z,102082.40
2019-04-29T06:21:37.490Z,102080.09
2019-04-29T06:24:06.348Z,102078.69
2019-04-29T06:26:34.929Z,102084.88
2019-04-29T06:29:05.808Z,102093.64
2019-04-29T06:31:33.582Z,102093.53
2019-04-29T06:34:05.338Z,102085.51
2019-04-29T06:36:32.250Z,102098.13
2019-04-29T06:39:00.672Z,102107.86
2019-04-29T06:41:29.163Z,102042.52
2019-04-29T06:44:00.648Z,102107.29
2019-04-29T06:46:27.891Z,102101.09
2019-04-29T06:49:09.417Z,102098.79
2019-04-29T06:51:26.487Z,102100.98
2019-04-29T06:53:54.922Z,102102.54
2019-04-29T06:56:23.525Z,102105.47
2019-04-29T06:58:51.959Z,102110.70
2019-04-29T07:01:20.408Z,102115.91
2019-04-29T07:03:48.993Z,102114.94
2019-04-29T07:06:17.527Z,102126.00
2019-04-29T07:08:45.948Z,102133.80
2019-04-29T07:11:14.410Z,102136.95
2019-04-29T07:13:42.904Z,102136.72
2019-04-29T07:16:11.346Z,102125.06
2019-04-29T07:18:46.241Z,102121.80
2019-04-29T07:21:11.916Z,102103.93
2019-04-29T07:23:41.182Z,102107.45
2019-04-29T07:26:09.637Z,102101.63
2019-04-29T07:28:38.255Z,102096.66
2019-04-29T07:31:09.883Z,102103.82
2019-04-29T07:33:36.883Z,102094.45
2019-04-29T07:36:11.214Z,102102.22
2019-04-29T07:38:41.701Z,102099.70
2019-04-29T07:41:05.976Z,102097.87
2019-04-29T07:43:38.670Z,102104.30
2019-04-29T07:46:09.044Z,102104.41
2019-04-29T07:48:41.866Z,102112.91
2019-04-29T07:51:07.736Z,102112.80
2019-04-29T07:53:44.797Z,102111.72
2019-04-29T07:56:06.295Z,102115.36
2019-04-29T07:58:35.854Z,102119.23
2019-04-29T08:01:04.296Z,102126.43
2019-04-29T08:03:32.902Z,102125.43
2019-04-29T08:06:01.930Z,102134.56
2019-04-29T08:08:32.008Z,102135.53
2019-04-29T08:11:00.430Z,102129.44
2019-04-29T08:13:31.170Z,102134.91
2019-04-29T08:15:59.605Z,102131.27
2019-04-29T08:18:28.043Z,102132.86
2019-04-29T08:20:56.479Z,102133.34
2019-04-29T08:23:24.919Z,102128.25
2019-04-29T08:25:57.483Z,102126.28
2019-04-29T08:28:23.524Z,102134.45
2019-04-29T08:30:52.028Z,102136.38
2019-04-29T08:33:20.464Z,102126.91
2019-04-29T08:35:48.882Z,102120.84
2019-04-29T08:38:17.378Z,102112.20
2019-04-29T08:40:50.092Z,102116.81
2019-04-29T08:43:29.146Z,102116.81
2019-04-29T08:46:01.938Z,102118.00
2019-04-29T08:48:30.382Z,102111.72
2019-04-29T08:50:58.792Z,102110.87
2019-04-29T08:53:27.237Z,102113.77
2019-04-29T08:55:55.720Z,102112.57
2019-04-29T08:58:24.219Z,102111.60
2019-04-29T09:00:55.764Z,102110.66
2019-04-29T09:03:23.346Z,102114.42
2019-04-29T09:06:05.033Z,102119.31
2019-04-29T09:08:23.121Z,102122.58
2019-04-29T09:10:51.625Z,102122.61
2019-04-29T09:13:20.324Z,102122.72
2019-04-29T09:15:48.763Z,102121.98
2019-04-29T09:18:17.196Z,102117.00
2019-04-29T09:20:45.658Z,102116.89
2019-04-29T09:23:15.777Z,102131.59
2019-04-29T09:26:03.203Z,102118.71
2019-04-29T09:28:31.790Z,102129.41
2019-04-29T09:31:00.224Z,102122.72
2019-04-29T09:33:28.824Z,102132.70
2019-04-29T09:35:57.250Z,102135.52
2019-04-29T09:38:25.722Z,102135.77
2019-04-29T09:40:59.500Z,102133.69
2019-04-29T09:43:36.534Z,102135.27
2019-04-29T09:46:10.181Z,102131.03
2019-04-29T09:48:38.622Z,102127.77
2019-04-29T09:51:17.331Z,102128.11
2019-04-29T09:53:37.219Z,102124.00
2019-04-29T09:56:06.009Z,102128.77
2019-04-29T09:58:34.549Z,102126.55
2019-04-29T10:01:13.744Z,102125.95
2019-04-29T10:04:00.236Z,102128.64
2019-04-29T10:06:30.300Z,102124.02
2019-04-29T10:08:59.000Z,102122.53
2019-04-29T10:11:27.520Z,102117.42
2019-04-29T10:13:57.067Z,102114.50
2019-04-29T10:16:31.779Z,102116.70
2019-04-29T10:19:05.239Z,102030.48
2019-04-29T10:21:32.300Z,102117.05
2019-04-29T10:24:00.740Z,102121.67
2019-04-29T10:26:29.483Z,102117.42
2019-04-29T10:28:59.553Z,102111.45
2019-04-29T10:31:28.037Z,102109.27
2019-04-29T10:33:56.598Z,102114.22
2019-04-29T10:36:26.316Z,102112.03
2019-04-29T10:38:56.554Z,102115.32
2019-04-29T10:41:26.685Z,102113.37
2019-04-29T10:44:08.600Z,102120.06
2019-04-29T10:46:55.105Z,102117.02
2019-04-29T10:49:25.171Z,102118.23
2019-04-29T10:51:58.145Z,102108.98
2019-04-29T10:54:23.655Z,102108.26
2019-04-29T10:56:52.267Z,102108.17
2019-04-29T10:59:20.832Z,102110.05
2019-04-29T11:02:16.097Z,102096.28
2019-04-29T11:04:46.181Z,102097.21
2019-04-29T11:07:19.033Z,102099.52
2019-04-29T11:09:50.712Z,102096.95
2019-04-29T11:12:19.421Z,102096.16
2019-04-29T11:14:48.151Z,102097.34
2019-04-29T11:17:16.954Z,102094.48
2019-04-29T11:19:45.393Z,102100.56
2019-04-29T11:22:15.449Z,102098.19
2019-04-29T11:24:48.228Z,102091.89
2019-04-29T11:27:24.193Z,102089.05
2019-04-29T11:29:52.674Z,102086.73
2019-04-29T11:32:30.350Z,102092.98
2019-04-29T11:35:07.150Z,102082.88
2019-04-29T11:37:35.730Z,102078.23
2019-04-29T11:40:06.573Z,102078.11
2019-04-29T11:42:36.768Z,102076.16
2019-04-29T11:45:08.443Z,102070.47
2019-04-29T11:47:37.136Z,102066.05
2019-04-29T11:50:14.987Z,102066.79
2019-04-29T11:52:43.481Z,102067.41
2019-04-29T11:55:14.078Z,102064.23
2019-04-29T11:57:43.321Z,102050.77
2019-04-29T12:00:18.201Z,102058.22
2019-04-29T12:02:48.277Z,102057.58
2019-04-29T12:05:18.347Z,102051.31
2019-04-29T12:07:46.849Z,102057.80
2019-04-29T12:10:15.263Z,102055.27
2019-04-29T12:12:47.635Z,102052.88
2019-04-29T12:15:17.904Z,102051.54
2019-04-29T12:17:56.832Z,102039.45
2019-04-29T12:20:32.447Z,102042.34
2019-04-29T12:23:00.887Z,102038.98
2019-04-29T12:25:29.458Z,102039.50
2019-04-29T12:28:01.653Z,102033.11
2019-04-29T12:30:34.451Z,102035.56
2019-04-29T12:33:03.094Z,102027.56
2019-04-29T12:35:33.635Z,102031.58
2019-04-29T12:38:11.230Z,102031.86
2019-04-29T12:40:57.302Z,102026.63
2019-04-29T12:43:42.349Z,102024.08
2019-04-29T12:46:12.463Z,102015.70
2019-04-29T12:48:40.856Z,102018.91
2019-04-29T12:51:09.430Z,102019.45
2019-04-29T12:53:37.848Z,102015.75
2019-04-29T12:56:10.906Z,102011.33
2019-04-29T12:58:36.512Z,101968.06
2019-04-29T13:01:22.603Z,102008.34
2019-04-29T13:03:52.678Z,102000.94
2019-04-29T13:06:38.829Z,101995.92
2019-04-29T13:08:57.707Z,101994.27
2019-04-29T13:11:37.602Z,101985.31
2019-04-29T13:14:01.717Z,101994.28
2019-04-29T13:16:35.451Z,101986.50
2019-04-29T13:19:12.453Z,101993.95
2019-04-29T13:21:39.530Z,101983.77
2019-04-29T13:24:22.120Z,101987.84
2019-04-29T13:26:42.645Z,101981.55
2019-04-29T13:29:07.685Z,101977.69
2019-04-29T13:33:22.501Z,101973.64
2019-04-29T13:34:22.856Z,101971.90
2019-04-29T13:36:37.996Z,101972.41
2019-04-29T13:39:08.661Z,101975.63
2019-04-29T13:41:55.600Z,101974.95
2019-04-29T13:44:07.943Z,101891.52
2019-04-29T13:46:40.664Z,101969.70
2019-04-29T13:49:13.405Z,101963.28
2019-04-29T13:51:45.796Z,101963.14
2019-04-29T13:54:14.235Z,101960.44
2019-04-29T13:56:55.512Z,101962.43
2019-04-29T13:59:23.817Z,101961.75
2019-04-29T14:02:01.417Z,101950.74
2019-04-29T14:04:34.979Z,101947.31
2019-04-29T14:07:03.787Z,101945.45
2019-04-29T14:09:35.035Z,101946.23
2019-04-29T14:12:42.338Z,101947.34
2019-04-29T14:14:31.978Z,101946.02
2019-04-29T14:17:24.271Z,101957.73
2019-04-29T14:19:40.983Z,101944.61
2019-04-29T14:21:59.964Z,101937.03
2019-04-29T14:24:28.337Z,101942.19
2019-04-29T14:26:56.765Z,101937.19
2019-04-29T14:29:28.129Z,101934.81
2019-04-29T14:31:59.356Z,101943.67
2019-04-29T14:34:30.553Z,101946.63
2019-04-29T14:37:18.367Z,101938.16
2019-04-29T14:39:36.561Z,101943.19
2019-04-29T14:42:02.185Z,101945.74
2019-04-29T14:44:32.251Z,101939.30
2019-04-29T14:47:11.333Z,101937.39
2019-04-29T14:49:47.034Z,101934.52
2019-04-29T14:52:15.542Z,101933.50
2019-04-29T14:54:43.989Z,101923.34
2019-04-29T14:57:12.422Z,101934.01
2019-04-29T14:59:40.993Z,101931.14
2019-04-29T15:02:16.059Z,101922.42
2019-04-29T15:04:43.162Z,101932.73
2019-04-29T15:07:11.570Z,101941.18
2019-04-29T15:09:46.776Z,101935.88
2019-04-29T15:12:17.053Z,101932.81
2019-04-29T15:14:47.850Z,101932.79
2019-04-29T15:17:20.857Z,101940.62
2019-04-29T15:20:16.151Z,101942.48
2019-04-29T15:22:44.580Z,101935.03
2019-04-29T15:25:16.629Z,101933.86
2019-04-29T15:27:43.925Z,101936.16
2019-04-29T15:30:12.574Z,101940.05
2019-04-29T15:32:41.010Z,101939.89
2019-04-29T15:35:09.572Z,101942.92
2019-04-29T15:37:38.020Z,101938.26
2019-04-29T15:40:08.205Z,101924.69
2019-04-29T15:42:37.837Z,101941.58
2019-04-29T15:45:07.494Z,101943.78
2019-04-29T15:47:36.042Z,101945.03
2019-04-29T15:50:18.243Z,101940.53
2019-04-29T15:52:36.385Z,101940.98
2019-04-29T15:55:05.661Z,101948.44
2019-04-29T15:57:34.391Z,101945.52
2019-04-29T16:00:20.505Z,101944.00
2019-04-29T16:02:35.914Z,101948.44
2019-04-29T16:05:09.238Z,101949.57
2019-04-29T16:10:33.020Z,101954.87
2019-04-29T16:13:03.100Z,101952.03
2019-04-29T16:15:31.553Z,101956.17
2019-04-29T16:18:05.095Z,101956.99
2019-04-29T16:20:30.166Z,101960.16
2019-04-29T16:23:00.694Z,101961.84
2019-04-29T16:25:28.011Z,101959.95
2019-04-29T16:27:56.374Z,101952.72
2019-04-29T16:30:25.902Z,101961.86
2019-04-29T16:32:54.237Z,101964.39
2019-04-29T16:35:23.859Z,101966.34
2019-04-29T16:37:52.143Z,101969.34
2019-04-29T16:40:20.804Z,101969.37
2019-04-29T16:43:02.648Z,101976.39
2019-04-29T16:45:51.753Z,101980.08
2019-04-29T16:48:15.117Z,101975.10
2019-04-29T16:50:43.754Z,101976.55
2019-04-29T16:53:12.396Z,101980.17
2019-04-29T16:55:43.053Z,101978.23
2019-04-29T16:58:17.705Z,101983.78
2019-04-29T17:00:46.703Z,101984.99
2019-04-29T17:03:10.916Z,101986.23
2019-04-29T17:05:39.365Z,101982.42
2019-04-29T17:08:09.482Z,101985.87
2019-04-29T17:10:38.920Z,101979.66
2019-04-29T17:13:09.103Z,101983.30
2019-04-29T17:15:38.150Z,101992.31
2019-04-29T17:18:07.134Z,101993.08
2019-04-29T17:20:35.549Z,101995.49
2019-04-29T17:23:03.969Z,101993.18
2019-04-29T17:25:32.419Z,102007.84
2019-04-29T17:28:02.489Z,102003.59
2019-04-29T17:30:32.675Z,102006.48
2019-04-29T17:33:27.742Z,101989.27
2019-04-29T17:35:16.714Z,101947.67
2019-04-29T17:35:53.117Z,102006.86
2019-04-29T17:38:20.927Z,102006.20
2019-04-29T17:40:51.241Z,102012.52
2019-04-29T17:43:29.650Z,102014.19
2019-04-29T17:46:15.614Z,102015.56
2019-04-29T17:49:02.053Z,102017.39
2019-04-29T17:51:31.688Z,102015.56
2019-04-29T17:54:01.800Z,102018.43
2019-04-29T17:56:45.070Z,102021.33
2019-04-29T17:59:29.542Z,102018.47
2019-04-29T18:02:20.781Z,102021.98
2019-04-29T18:05:01.912Z,102026.90
2019-04-29T18:07:31.980Z,102023.32
2019-04-29T18:10:05.132Z,102029.14
2019-04-29T18:12:41.071Z,102034.48
2019-04-29T18:15:06.008Z,102035.78
2019-04-29T18:17:36.251Z,102046.66
2019-04-29T18:20:13.606Z,102039.51
2019-04-29T18:22:46.764Z,102043.16
2019-04-29T18:25:36.588Z,102047.64
2019-04-29T18:28:05.216Z,102047.55
2019-04-29T18:30:36.497Z,102048.81
2019-04-29T18:33:05.380Z,102050.45
2019-04-29T18:35:35.441Z,102051.05
2019-04-29T18:38:03.435Z,102051.94
2019-04-29T18:40:35.488Z,102050.05
2019-04-29T18:43:01.957Z,102051.11
2019-04-29T18:45:34.360Z,101972.94
2019-04-29T18:48:00.354Z,102055.38
2019-04-29T18:50:29.656Z,102056.44
2019-04-29T18:52:59.164Z,102061.52
2019-04-29T18:55:28.184Z,102062.55
2019-04-29T18:57:58.461Z,102062.95
2019-04-29T19:00:26.940Z,102066.75
2019-04-29T19:02:58.475Z,102069.52
2019-04-29T19:05:32.282Z,102067.59
2019-04-29T19:08:11.294Z,102070.67
2019-04-29T19:10:34.427Z,102074.33
2019-04-29T19:13:07.103Z,102069.80
2019-04-29T19:15:29.995Z,102065.25
2019-04-29T19:18:01.436Z,102073.05
2019-04-29T19:20:28.600Z,102069.03
2019-04-29T19:23:05.676Z,102072.52
2019-04-29T19:25:27.182Z,102075.88
2019-04-29T19:27:55.696Z,102079.30
2019-04-29T19:30:27.019Z,102080.81
2019-04-29T19:33:00.519Z,102078.80
2019-04-29T19:35:25.290Z,102085.73
2019-04-29T19:37:53.957Z,102085.77
2019-04-29T19:40:22.447Z,102084.33
2019-04-29T19:42:50.883Z,102081.55
2019-04-29T19:45:19.308Z,102082.65
2019-04-29T19:47:53.034Z,102086.16
2019-04-29T19:50:19.688Z,102088.72
2019-04-29T19:52:48.513Z,102080.57
2019-04-29T19:55:17.168Z,102086.25
2019-04-29T19:57:48.085Z,102087.03
2019-04-29T20:00:17.272Z,102089.45
2019-04-29T20:02:49.737Z,102096.07
2019-04-29T20:05:23.841Z,102095.94
2019-04-29T20:07:51.357Z,102095.88
2019-04-29T20:10:21.335Z,102098.61
2019-04-29T20:12:53.251Z,102102.46
2019-04-29T20:15:20.982Z,102103.96
2019-04-29T20:18:07.208Z,102104.37
2019-04-29T20:20:40.873Z,102100.86
2019-04-29T20:23:09.550Z,102104.80
2019-04-29T20:25:38.929Z,102099.97
2019-04-29T20:28:12.668Z,102103.52
2019-04-29T20:30:37.756Z,102112.11
2019-04-29T20:33:11.034Z,102105.93
2019-04-29T20:35:40.430Z,102107.54
2019-04-29T20:38:06.771Z,102107.91
2019-04-29T20:40:39.069Z,102099.20
2019-04-29T20:43:08.374Z,102104.41
2019-04-29T20:45:36.327Z,102096.30
2019-04-29T20:48:06.404Z,102108.41
2019-04-29T20:50:35.415Z,102103.06
2019-04-29T20:53:09.312Z,102097.84
2019-04-29T20:55:38.660Z,102105.30
2019-04-29T20:58:07.451Z,102098.70
2019-04-29T21:00:38.142Z,102096.66
2019-04-29T21:03:09.446Z,102103.22
2019-04-29T21:05:47.575Z,102105.45
2019-04-29T21:08:14.533Z,102109.49
2019-04-29T21:10:37.864Z,102108.33
2019-04-29T21:13:25.770Z,102101.48
2019-04-29T21:16:01.670Z,102101.22
2019-04-29T21:18:30.094Z,102102.91
2019-04-29T21:20:59.673Z,102102.89
2019-04-29T21:23:31.618Z,102101.49
2019-04-29T21:26:00.435Z,102100.71
2019-04-29T21:28:31.488Z,102096.27
2019-04-29T21:30:59.485Z,102097.09
2019-04-29T21:33:27.911Z,102097.11
2019-04-29T21:36:12.985Z,102098.80
2019-04-29T21:39:01.808Z,102091.66
2019-04-29T21:41:30.046Z,102094.97
2019-04-29T21:43:59.260Z,102097.97
2019-04-29T21:46:29.513Z,102100.45
2019-04-29T21:48:58.067Z,102103.38
2019-04-29T21:51:26.496Z,102105.91
2019-04-29T21:53:56.006Z,102111.59
2019-04-29T21:56:25.693Z,102116.30
2019-04-29T21:58:53.907Z,102120.84
2019-04-29T22:01:22.854Z,102113.17
2019-04-29T22:03:51.278Z,102116.63
2019-04-29T22:06:19.733Z,102118.12
2019-04-29T22:08:48.160Z,102118.12
2019-04-29T22:11:17.497Z,102118.84
2019-04-29T22:13:46.349Z,102123.92
2019-04-29T22:16:15.765Z,102128.27
2019-04-29T22:18:51.793Z,102122.75
2019-04-29T22:21:21.403Z,102122.91
2019-04-29T22:23:50.966Z,102126.50
2019-04-29T22:26:16.316Z,102132.64
2019-04-29T22:28:47.431Z,102131.64
2019-04-29T22:31:18.098Z,102128.37
2019-04-29T22:33:48.774Z,102131.30
2019-04-29T22:36:18.071Z,102137.08
2019-04-29T22:38:48.701Z,102133.27
2019-04-29T22:41:21.061Z,102125.94
2019-04-29T22:43:54.637Z,102133.11
2019-04-29T22:46:25.549Z,102124.94
2019-04-29T22:48:55.702Z,102125.67
2019-04-29T22:51:23.395Z,102134.09
2019-04-29T22:53:51.759Z,102139.27
2019-04-29T22:56:20.177Z,102129.97
2019-04-29T22:58:48.636Z,102134.11
2019-04-29T23:01:17.840Z,102131.34
2019-04-29T23:03:47.309Z,102139.37
2019-04-29T23:06:15.835Z,102132.63
2019-04-29T23:08:45.006Z,102136.56
2019-04-29T23:11:13.486Z,102136.83
2019-04-29T23:13:41.919Z,102133.01
2019-04-29T23:16:10.636Z,102138.08
2019-04-29T23:18:43.514Z,102133.32
2019-04-29T23:21:10.938Z,102130.36
2019-04-29T23:23:45.413Z,102123.81
2019-04-29T23:26:14.826Z,102124.94
2019-04-29T23:28:45.653Z,102117.45
2019-04-29T23:31:13.839Z,102117.31
2019-04-29T23:33:42.292Z,102113.24
2019-04-29T23:36:14.086Z,102110.48
2019-04-29T23:38:42.788Z,102114.92
2019-04-29T23:41:10.687Z,102114.56
2019-04-29T23:43:39.049Z,102112.67
2019-04-29T23:46:07.492Z,102114.06
2019-04-29T23:48:39.452Z,102105.84
2019-04-29T23:51:06.627Z,102114.33
2019-04-29T23:53:35.229Z,102105.65
2019-04-29T23:56:05.564Z,102108.77
2019-04-29T23:58:38.748Z,102106.43
